sensor_id;sensor_type;location;lat;lon;timestamp;P1;durP1;ratioP1;P2;durP2;ratioP2
52972;SDS011;38837;48.916;2.336;2023-12-14T00:00:25;1.20;;;1.10;;
52972;SDS011;38837;48.916;2.336;2023-12-14T00:02:28;1.70;;;1.10;;
52972;SDS011;38837;48.916;2.336;2023-12-14T00:04:29;2.63;;;1.30;;
52972;SDS011;38837;48.916;2.336;2023-12-14T00:06:31;5.13;;;1.63;;
52972;SDS011;38837;48.916;2.336;2023-12-14T00:08:33;2.72;;;1.50;;
52972;SDS011;38837;48.916;2.336;2023-12-14T00:10:35;1.67;;;1.05;;
52972;SDS011;38837;48.916;2.336;2023-12-14T00:12:37;3.92;;;1.58;;
52972;SDS011;38837;48.916;2.336;2023-12-14T00:14:39;4.65;;;1.42;;
52972;SDS011;38837;48.916;2.336;2023-12-14T00:16:41;3.03;;;1.45;;
52972;SDS011;38837;48.916;2.336;2023-12-14T00:18:43;4.05;;;1.40;;
52972;SDS011;38837;48.916;2.336;2023-12-14T00:20:45;3.03;;;1.17;;
52972;SDS011;38837;48.916;2.336;2023-12-14T00:22:47;1.60;;;1.08;;
52972;SDS011;38837;48.916;2.336;2023-12-14T00:24:49;2.10;;;1.08;;
52972;SDS011;38837;48.916;2.336;2023-12-14T00:26:51;3.72;;;1.13;;
52972;SDS011;38837;48.916;2.336;2023-12-14T00:28:52;2.85;;;1.42;;
52972;SDS011;38837;48.916;2.336;2023-12-14T00:31:02;1.83;;;1.00;;
52972;SDS011;38837;48.916;2.336;2023-12-14T00:33:04;2.17;;;0.95;;
52972;SDS011;38837;48.916;2.336;2023-12-14T00:35:06;3.00;;;1.33;;
52972;SDS011;38837;48.916;2.336;2023-12-14T00:37:08;2.85;;;1.40;;
52972;SDS011;38837;48.916;2.336;2023-12-14T00:39:10;1.58;;;1.00;;
52972;SDS011;38837;48.916;2.336;2023-12-14T00:41:12;2.25;;;1.13;;
52972;SDS011;38837;48.916;2.336;2023-12-14T00:43:14;3.38;;;0.90;;
52972;SDS011;38837;48.916;2.336;2023-12-14T00:45:17;3.38;;;1.00;;
52972;SDS011;38837;48.916;2.336;2023-12-14T00:47:19;3.33;;;1.33;;
52972;SDS011;38837;48.916;2.336;2023-12-14T00:49:21;2.83;;;1.10;;
52972;SDS011;38837;48.916;2.336;2023-12-14T00:51:23;3.05;;;1.27;;
52972;SDS011;38837;48.916;2.336;2023-12-14T00:53:25;2.53;;;1.10;;
52972;SDS011;38837;48.916;2.336;2023-12-14T00:55:27;2.60;;;1.10;;
52972;SDS011;38837;48.916;2.336;2023-12-14T00:57:29;3.67;;;1.02;;
52972;SDS011;38837;48.916;2.336;2023-12-14T00:59:30;3.50;;;1.10;;
52972;SDS011;38837;48.916;2.336;2023-12-14T01:01:32;3.40;;;1.25;;
52972;SDS011;38837;48.916;2.336;2023-12-14T01:03:34;3.53;;;1.38;;
52972;SDS011;38837;48.916;2.336;2023-12-14T01:05:36;2.28;;;0.88;;
52972;SDS011;38837;48.916;2.336;2023-12-14T01:07:38;4.68;;;1.02;;
52972;SDS011;38837;48.916;2.336;2023-12-14T01:09:40;1.52;;;0.90;;
52972;SDS011;38837;48.916;2.336;2023-12-14T01:11:42;4.07;;;1.40;;
52972;SDS011;38837;48.916;2.336;2023-12-14T01:13:44;2.85;;;1.05;;
52972;SDS011;38837;48.916;2.336;2023-12-14T01:15:46;2.70;;;1.02;;
52972;SDS011;38837;48.916;2.336;2023-12-14T01:17:48;3.15;;;1.00;;
52972;SDS011;38837;48.916;2.336;2023-12-14T01:19:50;2.85;;;1.00;;
52972;SDS011;38837;48.916;2.336;2023-12-14T01:21:52;2.15;;;0.90;;
52972;SDS011;38837;48.916;2.336;2023-12-14T01:23:54;3.80;;;1.05;;
52972;SDS011;38837;48.916;2.336;2023-12-14T01:25:56;1.58;;;0.80;;
52972;SDS011;38837;48.916;2.336;2023-12-14T01:27:58;1.33;;;0.90;;
52972;SDS011;38837;48.916;2.336;2023-12-14T01:30:01;2.00;;;1.08;;
52972;SDS011;38837;48.916;2.336;2023-12-14T01:32:03;2.15;;;0.82;;
52972;SDS011;38837;48.916;2.336;2023-12-14T01:34:05;2.03;;;0.63;;
52972;SDS011;38837;48.916;2.336;2023-12-14T01:36:07;1.45;;;0.70;;
52972;SDS011;38837;48.916;2.336;2023-12-14T01:38:09;3.08;;;0.80;;
52972;SDS011;38837;48.916;2.336;2023-12-14T01:40:11;1.60;;;0.70;;
52972;SDS011;38837;48.916;2.336;2023-12-14T01:42:13;1.88;;;0.80;;
52972;SDS011;38837;48.916;2.336;2023-12-14T01:44:15;2.75;;;1.00;;
52972;SDS011;38837;48.916;2.336;2023-12-14T01:46:17;1.65;;;1.00;;
52972;SDS011;38837;48.916;2.336;2023-12-14T01:48:19;3.15;;;1.00;;
52972;SDS011;38837;48.916;2.336;2023-12-14T01:50:21;1.63;;;0.82;;
52972;SDS011;38837;48.916;2.336;2023-12-14T01:52:22;1.67;;;0.80;;
52972;SDS011;38837;48.916;2.336;2023-12-14T01:54:24;1.90;;;0.80;;
52972;SDS011;38837;48.916;2.336;2023-12-14T01:56:26;1.25;;;0.77;;
52972;SDS011;38837;48.916;2.336;2023-12-14T01:58:28;1.17;;;0.70;;
52972;SDS011;38837;48.916;2.336;2023-12-14T02:00:34;1.85;;;0.80;;
52972;SDS011;38837;48.916;2.336;2023-12-14T02:02:41;2.25;;;0.73;;
52972;SDS011;38837;48.916;2.336;2023-12-14T02:04:43;0.75;;;0.50;;
52972;SDS011;38837;48.916;2.336;2023-12-14T02:06:45;1.52;;;0.70;;
52972;SDS011;38837;48.916;2.336;2023-12-14T02:08:47;1.52;;;0.63;;
52972;SDS011;38837;48.916;2.336;2023-12-14T02:10:48;1.70;;;1.00;;
52972;SDS011;38837;48.916;2.336;2023-12-14T02:12:50;3.80;;;0.85;;
52972;SDS011;38837;48.916;2.336;2023-12-14T02:14:52;2.08;;;0.70;;
52972;SDS011;38837;48.916;2.336;2023-12-14T02:16:57;3.78;;;0.70;;
52972;SDS011;38837;48.916;2.336;2023-12-14T02:18:58;1.20;;;0.50;;
52972;SDS011;38837;48.916;2.336;2023-12-14T02:21:01;1.42;;;0.68;;
52972;SDS011;38837;48.916;2.336;2023-12-14T02:23:03;1.02;;;0.60;;
52972;SDS011;38837;48.916;2.336;2023-12-14T02:25:05;3.83;;;0.80;;
52972;SDS011;38837;48.916;2.336;2023-12-14T02:27:07;1.05;;;0.65;;
52972;SDS011;38837;48.916;2.336;2023-12-14T02:29:09;0.85;;;0.63;;
52972;SDS011;38837;48.916;2.336;2023-12-14T02:31:11;1.73;;;0.70;;
52972;SDS011;38837;48.916;2.336;2023-12-14T02:33:13;1.50;;;0.50;;
52972;SDS011;38837;48.916;2.336;2023-12-14T02:35:15;1.45;;;0.60;;
52972;SDS011;38837;48.916;2.336;2023-12-14T02:37:17;1.08;;;0.60;;
52972;SDS011;38837;48.916;2.336;2023-12-14T02:39:19;1.60;;;0.60;;
52972;SDS011;38837;48.916;2.336;2023-12-14T02:41:20;3.17;;;0.70;;
52972;SDS011;38837;48.916;2.336;2023-12-14T02:43:22;0.82;;;0.50;;
52972;SDS011;38837;48.916;2.336;2023-12-14T02:45:24;1.08;;;0.70;;
52972;SDS011;38837;48.916;2.336;2023-12-14T02:47:26;0.52;;;0.40;;
52972;SDS011;38837;48.916;2.336;2023-12-14T02:49:28;1.40;;;0.50;;
52972;SDS011;38837;48.916;2.336;2023-12-14T02:51:30;0.73;;;0.40;;
52972;SDS011;38837;48.916;2.336;2023-12-14T02:53:32;0.88;;;0.50;;
52972;SDS011;38837;48.916;2.336;2023-12-14T02:55:34;1.08;;;0.60;;
52972;SDS011;38837;48.916;2.336;2023-12-14T02:57:36;1.05;;;0.52;;
52972;SDS011;38837;48.916;2.336;2023-12-14T02:59:38;1.08;;;0.50;;
52972;SDS011;38837;48.916;2.336;2023-12-14T03:01:40;0.73;;;0.38;;
52972;SDS011;38837;48.916;2.336;2023-12-14T03:03:42;1.38;;;0.70;;
52972;SDS011;38837;48.916;2.336;2023-12-14T03:05:44;1.17;;;0.45;;
52972;SDS011;38837;48.916;2.336;2023-12-14T03:07:46;1.10;;;0.65;;
52972;SDS011;38837;48.916;2.336;2023-12-14T03:09:48;0.50;;;0.32;;
52972;SDS011;38837;48.916;2.336;2023-12-14T03:11:50;0.98;;;0.55;;
52972;SDS011;38837;48.916;2.336;2023-12-14T03:13:52;1.15;;;0.65;;
52972;SDS011;38837;48.916;2.336;2023-12-14T03:15:54;1.25;;;0.50;;
52972;SDS011;38837;48.916;2.336;2023-12-14T03:17:56;0.68;;;0.40;;
52972;SDS011;38837;48.916;2.336;2023-12-14T03:19:58;1.30;;;0.40;;
52972;SDS011;38837;48.916;2.336;2023-12-14T03:22:00;1.17;;;0.55;;
52972;SDS011;38837;48.916;2.336;2023-12-14T03:24:03;4.85;;;0.50;;
52972;SDS011;38837;48.916;2.336;2023-12-14T03:26:05;0.75;;;0.57;;
52972;SDS011;38837;48.916;2.336;2023-12-14T03:28:06;0.50;;;0.40;;
52972;SDS011;38837;48.916;2.336;2023-12-14T03:30:09;0.63;;;0.40;;
52972;SDS011;38837;48.916;2.336;2023-12-14T03:32:11;0.80;;;0.60;;
52972;SDS011;38837;48.916;2.336;2023-12-14T03:34:13;0.63;;;0.40;;
52972;SDS011;38837;48.916;2.336;2023-12-14T03:36:15;0.73;;;0.50;;
52972;SDS011;38837;48.916;2.336;2023-12-14T03:38:17;2.30;;;0.50;;
52972;SDS011;38837;48.916;2.336;2023-12-14T03:40:19;0.70;;;0.50;;
52972;SDS011;38837;48.916;2.336;2023-12-14T03:42:21;0.80;;;0.60;;
52972;SDS011;38837;48.916;2.336;2023-12-14T03:44:23;0.43;;;0.40;;
52972;SDS011;38837;48.916;2.336;2023-12-14T03:46:25;0.22;;;0.22;;
52972;SDS011;38837;48.916;2.336;2023-12-14T03:48:27;0.55;;;0.32;;
52972;SDS011;38837;48.916;2.336;2023-12-14T03:50:29;1.48;;;0.60;;
52972;SDS011;38837;48.916;2.336;2023-12-14T03:52:31;2.28;;;0.40;;
52972;SDS011;38837;48.916;2.336;2023-12-14T03:54:33;0.70;;;0.45;;
52972;SDS011;38837;48.916;2.336;2023-12-14T03:56:35;1.73;;;0.70;;
52972;SDS011;38837;48.916;2.336;2023-12-14T03:58:37;0.98;;;0.52;;
52972;SDS011;38837;48.916;2.336;2023-12-14T04:00:39;0.47;;;0.35;;
52972;SDS011;38837;48.916;2.336;2023-12-14T04:02:41;0.82;;;0.47;;
52972;SDS011;38837;48.916;2.336;2023-12-14T04:04:44;0.63;;;0.45;;
52972;SDS011;38837;48.916;2.336;2023-12-14T04:06:48;5.63;;;0.60;;
52972;SDS011;38837;48.916;2.336;2023-12-14T04:08:50;1.30;;;0.52;;
52972;SDS011;38837;48.916;2.336;2023-12-14T04:10:52;0.82;;;0.40;;
52972;SDS011;38837;48.916;2.336;2023-12-14T04:12:53;1.48;;;0.50;;
52972;SDS011;38837;48.916;2.336;2023-12-14T04:14:55;0.70;;;0.45;;
52972;SDS011;38837;48.916;2.336;2023-12-14T04:16:57;2.35;;;0.60;;
52972;SDS011;38837;48.916;2.336;2023-12-14T04:18:59;1.58;;;0.57;;
52972;SDS011;38837;48.916;2.336;2023-12-14T04:21:01;0.95;;;0.40;;
52972;SDS011;38837;48.916;2.336;2023-12-14T04:23:03;1.05;;;0.57;;
52972;SDS011;38837;48.916;2.336;2023-12-14T04:25:05;1.25;;;0.60;;
52972;SDS011;38837;48.916;2.336;2023-12-14T04:27:07;1.60;;;0.63;;
52972;SDS011;38837;48.916;2.336;2023-12-14T04:29:09;2.38;;;0.60;;
52972;SDS011;38837;48.916;2.336;2023-12-14T04:31:11;0.90;;;0.52;;
52972;SDS011;38837;48.916;2.336;2023-12-14T04:33:13;0.80;;;0.40;;
52972;SDS011;38837;48.916;2.336;2023-12-14T04:35:15;2.47;;;0.43;;
52972;SDS011;38837;48.916;2.336;2023-12-14T04:37:17;1.00;;;0.55;;
52972;SDS011;38837;48.916;2.336;2023-12-14T04:39:19;1.67;;;0.57;;
52972;SDS011;38837;48.916;2.336;2023-12-14T04:41:21;1.50;;;0.70;;
52972;SDS011;38837;48.916;2.336;2023-12-14T04:43:27;1.88;;;0.70;;
52972;SDS011;38837;48.916;2.336;2023-12-14T04:45:33;1.00;;;0.50;;
52972;SDS011;38837;48.916;2.336;2023-12-14T04:47:35;2.92;;;0.93;;
52972;SDS011;38837;48.916;2.336;2023-12-14T04:49:37;1.52;;;0.70;;
52972;SDS011;38837;48.916;2.336;2023-12-14T04:51:39;3.92;;;0.82;;
52972;SDS011;38837;48.916;2.336;2023-12-14T04:53:41;2.00;;;0.85;;
52972;SDS011;38837;48.916;2.336;2023-12-14T04:55:43;3.58;;;0.95;;
52972;SDS011;38837;48.916;2.336;2023-12-14T04:57:46;1.30;;;0.85;;
52972;SDS011;38837;48.916;2.336;2023-12-14T04:59:50;1.98;;;0.90;;
52972;SDS011;38837;48.916;2.336;2023-12-14T05:01:51;2.65;;;1.02;;
52972;SDS011;38837;48.916;2.336;2023-12-14T05:03:53;1.88;;;1.00;;
52972;SDS011;38837;48.916;2.336;2023-12-14T05:05:56;2.78;;;1.05;;
52972;SDS011;38837;48.916;2.336;2023-12-14T05:07:58;1.35;;;0.80;;
52972;SDS011;38837;48.916;2.336;2023-12-14T05:10:00;3.50;;;1.13;;
52972;SDS011;38837;48.916;2.336;2023-12-14T05:12:02;4.40;;;1.10;;
52972;SDS011;38837;48.916;2.336;2023-12-14T05:14:04;3.15;;;1.30;;
52972;SDS011;38837;48.916;2.336;2023-12-14T05:16:06;5.90;;;1.40;;
52972;SDS011;38837;48.916;2.336;2023-12-14T05:18:13;4.05;;;1.02;;
52972;SDS011;38837;48.916;2.336;2023-12-14T05:20:15;3.47;;;1.25;;
52972;SDS011;38837;48.916;2.336;2023-12-14T05:22:17;3.67;;;1.25;;
52972;SDS011;38837;48.916;2.336;2023-12-14T05:24:19;2.47;;;1.13;;
52972;SDS011;38837;48.916;2.336;2023-12-14T05:26:21;3.10;;;1.20;;
52972;SDS011;38837;48.916;2.336;2023-12-14T05:28:23;7.38;;;1.30;;
52972;SDS011;38837;48.916;2.336;2023-12-14T05:30:24;2.85;;;1.08;;
52972;SDS011;38837;48.916;2.336;2023-12-14T05:32:26;3.33;;;1.30;;
52972;SDS011;38837;48.916;2.336;2023-12-14T05:34:28;3.25;;;1.30;;
52972;SDS011;38837;48.916;2.336;2023-12-14T05:36:30;3.13;;;1.42;;
52972;SDS011;38837;48.916;2.336;2023-12-14T05:38:32;3.13;;;1.23;;
52972;SDS011;38837;48.916;2.336;2023-12-14T05:40:34;4.72;;;1.10;;
52972;SDS011;38837;48.916;2.336;2023-12-14T05:42:36;3.70;;;1.17;;
52972;SDS011;38837;48.916;2.336;2023-12-14T05:44:43;3.17;;;1.50;;
52972;SDS011;38837;48.916;2.336;2023-12-14T05:46:48;5.03;;;1.30;;
52972;SDS011;38837;48.916;2.336;2023-12-14T05:48:51;5.22;;;1.42;;
52972;SDS011;38837;48.916;2.336;2023-12-14T05:50:53;2.20;;;0.80;;
52972;SDS011;38837;48.916;2.336;2023-12-14T05:52:55;4.22;;;1.33;;
52972;SDS011;38837;48.916;2.336;2023-12-14T05:54:57;3.83;;;1.40;;
52972;SDS011;38837;48.916;2.336;2023-12-14T05:57:04;4.90;;;1.70;;
52972;SDS011;38837;48.916;2.336;2023-12-14T05:59:07;5.22;;;1.33;;
52972;SDS011;38837;48.916;2.336;2023-12-14T06:01:08;2.90;;;1.48;;
52972;SDS011;38837;48.916;2.336;2023-12-14T06:03:10;3.05;;;1.15;;
52972;SDS011;38837;48.916;2.336;2023-12-14T06:05:12;4.13;;;1.80;;
52972;SDS011;38837;48.916;2.336;2023-12-14T06:07:14;4.95;;;1.45;;
52972;SDS011;38837;48.916;2.336;2023-12-14T06:09:17;4.63;;;1.75;;
52972;SDS011;38837;48.916;2.336;2023-12-14T06:11:22;6.07;;;1.40;;
52972;SDS011;38837;48.916;2.336;2023-12-14T06:13:24;4.63;;;1.67;;
52972;SDS011;38837;48.916;2.336;2023-12-14T06:15:26;4.15;;;1.45;;
52972;SDS011;38837;48.916;2.336;2023-12-14T06:17:28;6.43;;;1.70;;
52972;SDS011;38837;48.916;2.336;2023-12-14T06:19:31;4.88;;;1.77;;
52972;SDS011;38837;48.916;2.336;2023-12-14T06:21:33;4.05;;;1.45;;
52972;SDS011;38837;48.916;2.336;2023-12-14T06:23:35;5.50;;;1.75;;
52972;SDS011;38837;48.916;2.336;2023-12-14T06:25:37;5.80;;;1.67;;
52972;SDS011;38837;48.916;2.336;2023-12-14T06:27:39;3.58;;;1.75;;
52972;SDS011;38837;48.916;2.336;2023-12-14T06:29:42;3.63;;;1.40;;
52972;SDS011;38837;48.916;2.336;2023-12-14T06:31:44;4.47;;;1.45;;
52972;SDS011;38837;48.916;2.336;2023-12-14T06:33:47;6.55;;;1.60;;
52972;SDS011;38837;48.916;2.336;2023-12-14T06:35:50;4.85;;;1.90;;
52972;SDS011;38837;48.916;2.336;2023-12-14T06:37:52;5.25;;;1.77;;
52972;SDS011;38837;48.916;2.336;2023-12-14T06:39:53;5.25;;;1.38;;
52972;SDS011;38837;48.916;2.336;2023-12-14T06:41:55;4.68;;;1.80;;
52972;SDS011;38837;48.916;2.336;2023-12-14T06:43:58;3.92;;;1.52;;
52972;SDS011;38837;48.916;2.336;2023-12-14T06:46:00;4.35;;;1.67;;
52972;SDS011;38837;48.916;2.336;2023-12-14T06:48:02;3.53;;;1.38;;
52972;SDS011;38837;48.916;2.336;2023-12-14T06:50:05;5.18;;;1.40;;
52972;SDS011;38837;48.916;2.336;2023-12-14T06:52:07;2.95;;;1.45;;
52972;SDS011;38837;48.916;2.336;2023-12-14T06:54:09;5.28;;;1.90;;
52972;SDS011;38837;48.916;2.336;2023-12-14T06:56:11;4.22;;;1.38;;
52972;SDS011;38837;48.916;2.336;2023-12-14T06:58:13;5.40;;;1.55;;
52972;SDS011;38837;48.916;2.336;2023-12-14T07:00:15;3.95;;;1.42;;
52972;SDS011;38837;48.916;2.336;2023-12-14T07:02:17;4.13;;;1.52;;
52972;SDS011;38837;48.916;2.336;2023-12-14T07:04:19;5.18;;;1.55;;
52972;SDS011;38837;48.916;2.336;2023-12-14T07:06:21;5.47;;;1.52;;
52972;SDS011;38837;48.916;2.336;2023-12-14T07:08:23;2.95;;;1.52;;
52972;SDS011;38837;48.916;2.336;2023-12-14T07:10:25;5.47;;;1.45;;
52972;SDS011;38837;48.916;2.336;2023-12-14T07:12:27;3.95;;;1.33;;
52972;SDS011;38837;48.916;2.336;2023-12-14T07:14:29;5.72;;;1.70;;
52972;SDS011;38837;48.916;2.336;2023-12-14T07:16:31;5.45;;;1.70;;
52972;SDS011;38837;48.916;2.336;2023-12-14T07:18:32;5.60;;;1.88;;
52972;SDS011;38837;48.916;2.336;2023-12-14T07:20:37;3.67;;;1.23;;
52972;SDS011;38837;48.916;2.336;2023-12-14T07:22:39;4.25;;;1.50;;
52972;SDS011;38837;48.916;2.336;2023-12-14T07:24:41;3.60;;;1.40;;
52972;SDS011;38837;48.916;2.336;2023-12-14T07:26:53;3.78;;;1.63;;
52972;SDS011;38837;48.916;2.336;2023-12-14T07:28:55;3.92;;;1.40;;
52972;SDS011;38837;48.916;2.336;2023-12-14T07:30:57;3.17;;;1.20;;
52972;SDS011;38837;48.916;2.336;2023-12-14T07:32:59;4.07;;;1.70;;
52972;SDS011;38837;48.916;2.336;2023-12-14T07:35:01;3.45;;;1.70;;
52972;SDS011;38837;48.916;2.336;2023-12-14T07:37:03;3.00;;;1.15;;
52972;SDS011;38837;48.916;2.336;2023-12-14T07:39:05;3.63;;;1.27;;
52972;SDS011;38837;48.916;2.336;2023-12-14T07:41:07;4.03;;;1.38;;
52972;SDS011;38837;48.916;2.336;2023-12-14T07:43:09;6.18;;;1.63;;
52972;SDS011;38837;48.916;2.336;2023-12-14T07:45:11;4.43;;;1.58;;
52972;SDS011;38837;48.916;2.336;2023-12-14T07:47:13;7.70;;;1.30;;
52972;SDS011;38837;48.916;2.336;2023-12-14T07:49:15;3.90;;;1.50;;
52972;SDS011;38837;48.916;2.336;2023-12-14T07:51:17;3.67;;;1.52;;
52972;SDS011;38837;48.916;2.336;2023-12-14T07:53:19;2.35;;;1.50;;
52972;SDS011;38837;48.916;2.336;2023-12-14T07:55:21;2.45;;;1.40;;
52972;SDS011;38837;48.916;2.336;2023-12-14T07:57:23;3.83;;;1.20;;
52972;SDS011;38837;48.916;2.336;2023-12-14T07:59:25;4.00;;;1.95;;
52972;SDS011;38837;48.916;2.336;2023-12-14T08:01:27;4.45;;;1.48;;
52972;SDS011;38837;48.916;2.336;2023-12-14T08:03:29;3.63;;;1.83;;
52972;SDS011;38837;48.916;2.336;2023-12-14T08:05:30;3.83;;;1.60;;
52972;SDS011;38837;48.916;2.336;2023-12-14T08:07:33;5.57;;;2.28;;
52972;SDS011;38837;48.916;2.336;2023-12-14T08:09:35;4.72;;;1.75;;
52972;SDS011;38837;48.916;2.336;2023-12-14T08:11:36;4.63;;;1.50;;
52972;SDS011;38837;48.916;2.336;2023-12-14T08:13:38;2.65;;;1.25;;
52972;SDS011;38837;48.916;2.336;2023-12-14T08:15:41;4.78;;;1.60;;
52972;SDS011;38837;48.916;2.336;2023-12-14T08:17:43;4.30;;;1.58;;
52972;SDS011;38837;48.916;2.336;2023-12-14T08:19:45;4.13;;;1.60;;
52972;SDS011;38837;48.916;2.336;2023-12-14T08:21:47;7.03;;;2.42;;
52972;SDS011;38837;48.916;2.336;2023-12-14T08:23:49;4.20;;;1.80;;
52972;SDS011;38837;48.916;2.336;2023-12-14T08:25:51;3.17;;;1.38;;
52972;SDS011;38837;48.916;2.336;2023-12-14T08:27:53;7.22;;;2.25;;
52972;SDS011;38837;48.916;2.336;2023-12-14T08:29:55;4.38;;;1.60;;
52972;SDS011;38837;48.916;2.336;2023-12-14T08:31:57;4.13;;;1.40;;
52972;SDS011;38837;48.916;2.336;2023-12-14T08:34:00;4.10;;;1.45;;
52972;SDS011;38837;48.916;2.336;2023-12-14T08:36:02;3.85;;;1.58;;
52972;SDS011;38837;48.916;2.336;2023-12-14T08:38:06;3.50;;;1.80;;
52972;SDS011;38837;48.916;2.336;2023-12-14T08:40:08;2.80;;;1.10;;
52972;SDS011;38837;48.916;2.336;2023-12-14T08:42:11;14.77;;;1.90;;
52972;SDS011;38837;48.916;2.336;2023-12-14T08:44:14;4.13;;;1.65;;
52972;SDS011;38837;48.916;2.336;2023-12-14T08:46:16;4.28;;;1.80;;
52972;SDS011;38837;48.916;2.336;2023-12-14T08:48:18;5.82;;;1.45;;
52972;SDS011;38837;48.916;2.336;2023-12-14T08:50:20;2.88;;;1.27;;
52972;SDS011;38837;48.916;2.336;2023-12-14T08:52:22;6.47;;;1.80;;
52972;SDS011;38837;48.916;2.336;2023-12-14T08:54:24;5.63;;;1.65;;
52972;SDS011;38837;48.916;2.336;2023-12-14T08:56:26;5.32;;;1.95;;
52972;SDS011;38837;48.916;2.336;2023-12-14T08:58:28;3.75;;;1.42;;
52972;SDS011;38837;48.916;2.336;2023-12-14T09:00:30;5.10;;;2.05;;
52972;SDS011;38837;48.916;2.336;2023-12-14T09:02:32;5.05;;;2.10;;
52972;SDS011;38837;48.916;2.336;2023-12-14T09:04:35;4.03;;;1.65;;
52972;SDS011;38837;48.916;2.336;2023-12-14T09:06:37;5.40;;;2.25;;
52972;SDS011;38837;48.916;2.336;2023-12-14T09:08:39;4.28;;;1.83;;
52972;SDS011;38837;48.916;2.336;2023-12-14T09:10:41;5.90;;;1.60;;
52972;SDS011;38837;48.916;2.336;2023-12-14T09:12:43;7.55;;;1.80;;
52972;SDS011;38837;48.916;2.336;2023-12-14T09:14:45;3.85;;;1.77;;
52972;SDS011;38837;48.916;2.336;2023-12-14T09:16:47;4.43;;;1.90;;
52972;SDS011;38837;48.916;2.336;2023-12-14T09:18:49;5.35;;;1.92;;
52972;SDS011;38837;48.916;2.336;2023-12-14T09:20:51;3.40;;;1.38;;
52972;SDS011;38837;48.916;2.336;2023-12-14T09:22:53;5.78;;;1.90;;
52972;SDS011;38837;48.916;2.336;2023-12-14T09:24:55;5.95;;;1.90;;
52972;SDS011;38837;48.916;2.336;2023-12-14T09:26:57;4.45;;;1.70;;
52972;SDS011;38837;48.916;2.336;2023-12-14T09:28:58;4.95;;;1.80;;
52972;SDS011;38837;48.916;2.336;2023-12-14T09:31:00;4.30;;;1.80;;
52972;SDS011;38837;48.916;2.336;2023-12-14T09:33:05;8.70;;;2.10;;
52972;SDS011;38837;48.916;2.336;2023-12-14T09:35:10;5.15;;;1.50;;
52972;SDS011;38837;48.916;2.336;2023-12-14T09:37:12;3.85;;;1.85;;
52972;SDS011;38837;48.916;2.336;2023-12-14T09:39:15;5.82;;;1.92;;
52972;SDS011;38837;48.916;2.336;2023-12-14T09:41:17;2.75;;;1.50;;
52972;SDS011;38837;48.916;2.336;2023-12-14T09:43:19;4.45;;;1.70;;
52972;SDS011;38837;48.916;2.336;2023-12-14T09:45:24;6.38;;;2.17;;
52972;SDS011;38837;48.916;2.336;2023-12-14T09:47:29;4.07;;;1.65;;
52972;SDS011;38837;48.916;2.336;2023-12-14T09:49:31;5.45;;;1.85;;
52972;SDS011;38837;48.916;2.336;2023-12-14T09:51:33;9.45;;;2.05;;
52972;SDS011;38837;48.916;2.336;2023-12-14T09:53:35;7.38;;;1.70;;
52972;SDS011;38837;48.916;2.336;2023-12-14T09:55:37;4.32;;;1.77;;
52972;SDS011;38837;48.916;2.336;2023-12-14T09:57:39;3.30;;;1.63;;
52972;SDS011;38837;48.916;2.336;2023-12-14T09:59:41;4.57;;;1.80;;
52972;SDS011;38837;48.916;2.336;2023-12-14T10:01:52;4.25;;;1.90;;
52972;SDS011;38837;48.916;2.336;2023-12-14T10:04:13;3.92;;;1.30;;
52972;SDS011;38837;48.916;2.336;2023-12-14T10:06:17;3.88;;;1.40;;
52972;SDS011;38837;48.916;2.336;2023-12-14T10:08:20;6.43;;;1.80;;
52972;SDS011;38837;48.916;2.336;2023-12-14T10:10:28;4.32;;;1.75;;
52972;SDS011;38837;48.916;2.336;2023-12-14T10:12:30;3.63;;;1.75;;
52972;SDS011;38837;48.916;2.336;2023-12-14T10:14:32;7.18;;;1.85;;
52972;SDS011;38837;48.916;2.336;2023-12-14T10:16:35;4.05;;;1.73;;
52972;SDS011;38837;48.916;2.336;2023-12-14T10:18:37;8.98;;;2.38;;
52972;SDS011;38837;48.916;2.336;2023-12-14T10:20:40;6.88;;;2.25;;
52972;SDS011;38837;48.916;2.336;2023-12-14T10:22:43;9.25;;;2.33;;
52972;SDS011;38837;48.916;2.336;2023-12-14T10:24:48;5.60;;;1.65;;
52972;SDS011;38837;48.916;2.336;2023-12-14T10:26:51;8.75;;;2.17;;
52972;SDS011;38837;48.916;2.336;2023-12-14T10:28:53;10.02;;;2.25;;
52972;SDS011;38837;48.916;2.336;2023-12-14T10:30:55;11.45;;;2.13;;
52972;SDS011;38837;48.916;2.336;2023-12-14T10:32:57;10.10;;;2.47;;
52972;SDS011;38837;48.916;2.336;2023-12-14T10:34:59;5.55;;;2.28;;
52972;SDS011;38837;48.916;2.336;2023-12-14T10:37:04;6.43;;;2.08;;
52972;SDS011;38837;48.916;2.336;2023-12-14T10:39:08;7.13;;;2.22;;
52972;SDS011;38837;48.916;2.336;2023-12-14T10:41:14;8.35;;;2.20;;
52972;SDS011;38837;48.916;2.336;2023-12-14T10:43:19;8.63;;;2.25;;
52972;SDS011;38837;48.916;2.336;2023-12-14T10:45:43;7.05;;;2.05;;
52972;SDS011;38837;48.916;2.336;2023-12-14T10:47:49;7.25;;;2.22;;
52972;SDS011;38837;48.916;2.336;2023-12-14T10:49:52;10.90;;;2.72;;
52972;SDS011;38837;48.916;2.336;2023-12-14T10:51:56;11.15;;;2.58;;
52972;SDS011;38837;48.916;2.336;2023-12-14T10:54:00;7.95;;;2.38;;
52972;SDS011;38837;48.916;2.336;2023-12-14T10:56:02;6.60;;;2.30;;
52972;SDS011;38837;48.916;2.336;2023-12-14T10:58:11;6.65;;;2.08;;
52972;SDS011;38837;48.916;2.336;2023-12-14T11:00:15;8.77;;;2.03;;
52972;SDS011;38837;48.916;2.336;2023-12-14T11:02:19;6.68;;;2.50;;
52972;SDS011;38837;48.916;2.336;2023-12-14T11:04:21;5.15;;;2.30;;
52972;SDS011;38837;48.916;2.336;2023-12-14T11:06:30;8.60;;;2.63;;
52972;SDS011;38837;48.916;2.336;2023-12-14T11:08:34;6.55;;;2.72;;
52972;SDS011;38837;48.916;2.336;2023-12-14T11:10:40;4.57;;;2.13;;
52972;SDS011;38837;48.916;2.336;2023-12-14T11:13:17;5.47;;;2.65;;
52972;SDS011;38837;48.916;2.336;2023-12-14T11:15:14;6.93;;;2.50;;
52972;SDS011;38837;48.916;2.336;2023-12-14T11:17:18;8.20;;;2.15;;
52972;SDS011;38837;48.916;2.336;2023-12-14T11:21:25;14.90;;;3.25;;
52972;SDS011;38837;48.916;2.336;2023-12-14T11:23:29;8.35;;;2.80;;
52972;SDS011;38837;48.916;2.336;2023-12-14T11:25:33;10.93;;;3.05;;
52972;SDS011;38837;48.916;2.336;2023-12-14T11:27:45;14.43;;;3.40;;
52972;SDS011;38837;48.916;2.336;2023-12-14T11:29:48;14.70;;;4.05;;
52972;SDS011;38837;48.916;2.336;2023-12-14T11:31:50;18.70;;;3.08;;
52972;SDS011;38837;48.916;2.336;2023-12-14T11:33:53;17.15;;;2.90;;
52972;SDS011;38837;48.916;2.336;2023-12-14T11:35:57;22.20;;;3.90;;
52972;SDS011;38837;48.916;2.336;2023-12-14T11:37:59;17.13;;;3.58;;
52972;SDS011;38837;48.916;2.336;2023-12-14T11:40:04;14.07;;;3.35;;
52972;SDS011;38837;48.916;2.336;2023-12-14T11:42:09;7.78;;;2.80;;
52972;SDS011;38837;48.916;2.336;2023-12-14T11:44:21;6.87;;;2.10;;
52972;SDS011;38837;48.916;2.336;2023-12-14T11:46:24;9.38;;;2.53;;
52972;SDS011;38837;48.916;2.336;2023-12-14T11:48:26;8.68;;;2.80;;
52972;SDS011;38837;48.916;2.336;2023-12-14T11:50:28;11.20;;;2.10;;
52972;SDS011;38837;48.916;2.336;2023-12-14T11:52:30;9.38;;;2.45;;
52972;SDS011;38837;48.916;2.336;2023-12-14T11:54:32;11.93;;;2.38;;
52972;SDS011;38837;48.916;2.336;2023-12-14T11:56:34;8.40;;;2.35;;
52972;SDS011;38837;48.916;2.336;2023-12-14T11:58:40;6.85;;;2.08;;
52972;SDS011;38837;48.916;2.336;2023-12-14T12:00:42;8.38;;;2.80;;
52972;SDS011;38837;48.916;2.336;2023-12-14T12:02:45;7.70;;;1.77;;
52972;SDS011;38837;48.916;2.336;2023-12-14T12:04:50;7.68;;;2.08;;
52972;SDS011;38837;48.916;2.336;2023-12-14T12:07:00;6.65;;;2.13;;
52972;SDS011;38837;48.916;2.336;2023-12-14T12:09:03;8.40;;;2.25;;
52972;SDS011;38837;48.916;2.336;2023-12-14T12:11:09;7.32;;;2.55;;
52972;SDS011;38837;48.916;2.336;2023-12-14T12:13:13;5.85;;;2.53;;
52972;SDS011;38837;48.916;2.336;2023-12-14T12:15:16;7.25;;;2.22;;
52972;SDS011;38837;48.916;2.336;2023-12-14T12:17:20;7.38;;;2.40;;
52972;SDS011;38837;48.916;2.336;2023-12-14T12:19:22;6.10;;;1.92;;
52972;SDS011;38837;48.916;2.336;2023-12-14T12:21:23;6.00;;;2.25;;